Date,TemperatureHighF,TemperatureAvgF,TemperatureLowF,DewpointHighF,DewpointAvgF,DewpointLowF,HumidityHigh,HumidityAvg,HumidityLow,PressureMaxIn,PressureMinIn,WindSpeedMaxMPH,WindSpeedAvgMPH,GustSpeedMaxMPH,PrecipitationSumIn
2013-1-6,29,23,19,18,14,10,73,68,61,29.92,29.92,10,2,14,0.00
2013-1-7,43,28,12,25,18,6,76,65,42,29.92,29.92,13,5,22,0.00
2013-1-8,43,35,24,30,26,18,78,71,58,29.92,29.92,10,4,16,0.00
2013-1-9,44,36,25,30,25,18,76,66,52,29.92,29.92,14,5,20,0.00
2013-1-10,34,25,24,24,19,17,80,76,63,29.92,29.92,3,1,5,0.00
2013-1-11,51,50,50,46,46,46,88,86,83,29.92,29.92,7,6,11,0.00
2013-1-12,53,37,24,47,29,16,83,72,62,29.92,29.92,11,6,20,0.00
2013-1-13,24,18,11,17,7,0,79,62,53,29.92,29.92,11,5,16,0.00
2013-1-14,26,15,6,7,2,-4,67,57,42,29.92,29.92,8,1,11,0.00
2013-1-15,32,21,10,15,8,1,71,58,43,29.92,29.92,6,1,9,0.00
2013-1-16,35,26,8,28,15,-1,81,64,48,29.92,29.92,13,4,20,0.00
2013-1-17,33,24,18,28,9,1,82,54,32,29.92,29.92,12,4,15,0.00
2013-1-18,45,32,16,30,22,7,74,64,55,29.92,29.92,16,6,23,0.00
2013-1-19,40,39,39,30,30,29,71,69,67,29.92,29.92,8,6,11,0.00
2013-1-20,17,12,9,-1,-5,-8,50,46,44,29.92,29.92,15,7,25,0.07
2013-1-21,11,6,2,-2,-13,-19,55,40,27,29.92,29.92,13,6,21,0.00
2013-1-22,12,6,-4,-10,-14,-19,48,37,31,29.92,29.92,15,4,21,0.00
2013-1-23,10,10,9,-9,-11,-12,41,39,37,29.92,29.92,5,2,8,0.00
2013-1-24,20,12,3,2,-8,-13,47,41,27,29.92,29.92,17,5,21,0.00
2013-1-25,32,23,17,15,9,-2,72,56,39,29.92,29.92,11,5,17,0.00
2013-1-26,16,10,6,2,-2,-5,63,58,53,29.92,29.92,8,2,10,0.00
2013-1-27,31,29,23,26,20,9,81,68,53,29.92,29.92,13,6,19,0.04
2013-1-28,43,40,38,42,38,35,97,90,82,29.92,29.92,7,2,8,0.19
2013-1-29,62,52,40,58,50,39,97,93,81,29.92,29.92,10,3,16,0.79
2013-1-30,36,29,22,34,26,17,92,86,80,29.92,29.92,17,7,22,0.39
2013-1-31,16,13,10,8,3,-1,70,64,58,29.92,29.92,13,7,19,0.00